createdAt,value
2024-04-13T00:01:39.653Z,16.20
2024-04-13T00:04:09.769Z,15.90
2024-04-13T00:06:39.472Z,15.40
2024-04-13T00:09:10.307Z,15.85
2024-04-13T00:11:40.097Z,15.57
2024-04-13T00:14:10.206Z,15.75
2024-04-13T00:16:37.476Z,15.77
2024-04-13T00:19:07.305Z,16.17
2024-04-13T00:21:34.649Z,15.50
2024-04-13T00:24:04.562Z,16.10
2024-04-13T00:26:33.858Z,15.13
2024-04-13T00:29:07.586Z,14.25
2024-04-13T00:31:35.115Z,16.02
2024-04-13T00:34:05.997Z,19.05
2024-04-13T00:36:36.815Z,19.92
2024-04-13T00:39:07.905Z,18.25
2024-04-13T00:41:35.189Z,18.50
2024-04-13T00:44:08.194Z,17.52
2024-04-13T00:46:35.426Z,16.80
2024-04-13T00:49:12.526Z,16.98
2024-04-13T00:51:42.596Z,17.83
2024-04-13T00:54:14.370Z,17.60
2024-04-13T00:56:42.280Z,18.45
2024-04-13T00:59:15.311Z,17.92
2024-04-13T01:01:42.956Z,18.73
2024-04-13T01:04:14.323Z,16.80
2024-04-13T01:06:41.869Z,17.30
2024-04-13T01:09:11.887Z,16.70
2024-04-13T01:11:40.028Z,15.45
2024-04-13T01:14:11.964Z,16.73
2024-04-13T01:16:41.989Z,16.73
2024-04-13T01:19:13.212Z,16.27
2024-04-13T01:21:41.326Z,16.70
2024-04-13T01:24:14.328Z,16.10
2024-04-13T01:26:42.888Z,14.80
2024-04-13T01:29:12.761Z,16.52
2024-04-13T01:31:39.966Z,16.15
2024-04-13T01:34:10.194Z,15.35
2024-04-13T01:36:37.945Z,15.43
2024-04-13T01:39:09.474Z,15.50
2024-04-13T01:41:43.697Z,17.25
2024-04-13T01:44:13.829Z,15.85
2024-04-13T01:46:41.037Z,14.88
2024-04-13T01:49:10.802Z,15.32
2024-04-13T01:51:38.402Z,15.05
2024-04-13T01:54:08.351Z,15.10
2024-04-13T01:56:35.529Z,14.73
2024-04-13T01:59:07.945Z,13.57
2024-04-13T02:01:35.537Z,14.43
2024-04-13T02:04:05.471Z,13.45
2024-04-13T02:06:32.740Z,13.50
2024-04-13T02:09:02.594Z,14.98
2024-04-13T02:11:30.683Z,13.10
2024-04-13T02:14:00.485Z,11.77
2024-04-13T02:16:30.921Z,13.85
2024-04-13T02:19:00.988Z,14.13
2024-04-13T02:21:29.381Z,12.27
2024-04-13T02:23:59.299Z,11.57
2024-04-13T02:26:26.522Z,12.95
2024-04-13T02:28:56.255Z,11.68
2024-04-13T02:31:23.391Z,12.73
2024-04-13T02:33:56.053Z,12.05
2024-04-13T02:36:23.471Z,11.82
2024-04-13T02:38:53.335Z,11.75
2024-04-13T02:41:20.517Z,10.80
2024-04-13T02:43:50.320Z,11.60
2024-04-13T02:46:18.059Z,12.30
2024-04-13T02:48:49.431Z,11.10
2024-04-13T02:51:19.486Z,11.48
2024-04-13T02:53:49.287Z,11.65
2024-04-13T02:56:16.472Z,12.32
2024-04-13T02:58:46.313Z,11.75
2024-04-13T03:01:13.703Z,11.68
2024-04-13T03:03:43.702Z,12.07
2024-04-13T03:06:13.031Z,11.40
2024-04-13T03:08:45.559Z,10.93
2024-04-13T03:11:13.613Z,11.30
2024-04-13T03:13:43.978Z,11.18
2024-04-13T03:16:11.886Z,11.55
2024-04-13T03:18:43.532Z,11.27
2024-04-13T03:21:11.463Z,11.05
2024-04-13T03:23:46.107Z,10.43
2024-04-13T03:26:13.598Z,10.38
2024-04-13T03:28:44.433Z,11.30
2024-04-13T03:31:11.709Z,11.15
2024-04-13T03:33:41.519Z,11.07
2024-04-13T03:36:09.070Z,10.55
2024-04-13T03:38:38.942Z,10.45
2024-04-13T03:41:11.492Z,10.25
2024-04-13T03:43:41.624Z,10.27
2024-04-13T03:46:08.859Z,10.32
2024-04-13T03:48:43.563Z,11.48
2024-04-13T03:51:11.778Z,10.85
2024-04-13T03:53:42.052Z,10.43
2024-04-13T03:56:11.931Z,11.85
2024-04-13T03:58:42.840Z,9.90
2024-04-13T04:01:10.094Z,10.07
2024-04-13T04:03:40.259Z,11.57
2024-04-13T04:06:07.886Z,10.80
2024-04-13T04:08:37.805Z,11.52
2024-04-13T04:11:05.140Z,12.13
2024-04-13T04:13:37.635Z,11.32
2024-04-13T04:16:05.550Z,12.25
2024-04-13T04:18:35.406Z,12.23
2024-04-13T04:21:03.420Z,11.50
2024-04-13T04:23:34.226Z,10.85
2024-04-13T04:26:03.332Z,10.55
2024-04-13T04:28:33.164Z,11.05
2024-04-13T04:31:13.841Z,11.73
2024-04-13T04:33:44.174Z,11.73
2024-04-13T04:36:11.544Z,11.10
2024-04-13T04:38:41.470Z,10.98
2024-04-13T04:41:08.673Z,10.73
2024-04-13T04:43:38.428Z,10.18
2024-04-13T04:46:05.592Z,11.32
2024-04-13T04:48:38.340Z,10.40
2024-04-13T04:51:06.610Z,10.55
2024-04-13T04:53:36.993Z,11.40
2024-04-13T04:56:04.676Z,10.35
2024-04-13T04:58:34.477Z,11.82
2024-04-13T05:01:02.936Z,11.65
2024-04-13T05:03:33.123Z,11.52
2024-04-13T05:06:04.426Z,10.48
2024-04-13T05:08:34.242Z,10.48
2024-04-13T05:11:01.492Z,11.00
2024-04-13T05:13:32.489Z,11.05
2024-04-13T05:15:59.671Z,11.57
2024-04-13T05:18:29.661Z,10.40
2024-04-13T05:20:56.970Z,10.88
2024-04-13T05:23:29.461Z,11.38
2024-04-13T05:25:56.707Z,10.57
2024-04-13T05:28:27.840Z,10.88
2024-04-13T05:30:57.785Z,12.32
2024-04-13T05:33:28.632Z,11.23
2024-04-13T05:35:58.654Z,11.68
2024-04-13T05:38:31.576Z,11.45
2024-04-13T05:40:58.794Z,11.90
2024-04-13T05:43:28.715Z,12.02
2024-04-13T05:45:56.357Z,11.77
2024-04-13T05:48:26.339Z,11.32
2024-04-13T05:50:57.650Z,11.15
2024-04-13T05:53:32.410Z,10.77
2024-04-13T05:56:05.853Z,11.70
2024-04-13T05:58:36.933Z,10.32
2024-04-13T06:01:04.524Z,9.70
2024-04-13T06:03:34.942Z,9.90
2024-04-13T06:06:02.358Z,9.85
2024-04-13T06:08:34.836Z,8.70
2024-04-13T06:11:02.184Z,7.80
2024-04-13T06:13:32.037Z,8.88
2024-04-13T06:16:03.395Z,8.73
2024-04-13T06:18:33.348Z,7.93
2024-04-13T06:21:01.680Z,8.50
2024-04-13T06:23:34.163Z,8.40
2024-04-13T06:26:01.426Z,8.13
2024-04-13T06:28:31.640Z,8.10
2024-04-13T06:30:58.983Z,7.38
2024-04-13T06:33:29.095Z,7.75
2024-04-13T06:35:56.478Z,7.75
2024-04-13T06:38:29.223Z,7.68
2024-04-13T06:40:59.031Z,7.03
2024-04-13T06:43:28.825Z,7.22
2024-04-13T06:45:56.043Z,6.88
2024-04-13T06:48:25.941Z,7.05
2024-04-13T06:50:53.461Z,7.47
2024-04-13T06:53:24.664Z,6.55
2024-04-13T06:55:51.846Z,6.47
2024-04-13T06:58:25.258Z,6.28
2024-04-13T07:00:57.074Z,6.72
2024-04-13T07:03:27.418Z,6.28
2024-04-13T07:05:59.238Z,5.70
2024-04-13T07:08:29.258Z,5.63
2024-04-13T07:10:57.378Z,5.45
2024-04-13T07:13:30.002Z,5.45
2024-04-13T07:15:57.340Z,5.57
2024-04-13T07:18:27.192Z,4.28
2024-04-13T07:20:54.392Z,5.75
2024-04-13T07:23:24.235Z,4.88
2024-04-13T07:25:58.195Z,4.40
2024-04-13T07:28:31.324Z,11.45
2024-04-13T07:30:58.996Z,18.88
2024-04-13T07:33:30.663Z,5.63
2024-04-13T07:35:58.197Z,6.60
2024-04-13T07:38:28.812Z,4.22
2024-04-13T07:40:55.955Z,3.15
2024-04-13T07:43:26.028Z,3.63
2024-04-13T07:45:55.968Z,3.70
2024-04-13T07:48:29.182Z,4.53
2024-04-13T07:50:57.362Z,5.10
2024-04-13T07:53:31.955Z,6.72
2024-04-13T07:55:59.361Z,4.20
2024-04-13T07:58:29.153Z,3.75
2024-04-13T08:00:59.122Z,4.57
2024-04-13T08:03:29.111Z,5.88
2024-04-13T08:05:56.407Z,2.90
2024-04-13T08:08:26.929Z,3.08
2024-04-13T08:10:54.231Z,2.53
2024-04-13T08:13:24.039Z,3.28
2024-04-13T08:15:51.319Z,4.78
2024-04-13T08:18:23.838Z,5.47
2024-04-13T08:20:51.480Z,2.80
2024-04-13T08:23:21.330Z,2.75
2024-04-13T08:25:48.528Z,2.47
2024-04-13T08:28:18.349Z,2.65
2024-04-13T08:30:45.757Z,2.53
2024-04-13T08:33:15.648Z,2.38
2024-04-13T08:35:45.688Z,2.47
2024-04-13T08:38:18.072Z,2.42
2024-04-13T08:40:50.483Z,2.53
2024-04-13T08:43:20.371Z,2.33
2024-04-13T08:45:48.006Z,2.40
2024-04-13T08:48:19.170Z,2.10
2024-04-13T08:50:50.635Z,2.60
2024-04-13T08:53:21.465Z,2.70
2024-04-13T08:55:49.740Z,2.40
2024-04-13T08:58:21.931Z,2.15
2024-04-13T09:00:53.555Z,2.55
2024-04-13T09:03:24.393Z,2.65
2024-04-13T09:05:54.285Z,2.80
2024-04-13T09:08:26.556Z,2.22
2024-04-13T09:10:56.389Z,2.90
2024-04-13T09:13:26.262Z,2.28
2024-04-13T09:15:53.456Z,2.15
2024-04-13T09:18:23.458Z,2.47
2024-04-13T09:20:55.306Z,2.25
2024-04-13T09:23:25.200Z,2.25
2024-04-13T09:26:01.761Z,2.25
2024-04-13T09:28:41.595Z,3.20
2024-04-13T09:31:10.656Z,2.40
2024-04-13T09:33:41.761Z,1.98
2024-04-13T09:36:11.647Z,2.30
2024-04-13T09:38:41.453Z,2.00
2024-04-13T09:41:08.812Z,2.63
2024-04-13T09:43:39.635Z,2.30
2024-04-13T09:46:06.863Z,2.05
2024-04-13T09:48:37.770Z,2.05
2024-04-13T09:51:05.665Z,1.92
2024-04-13T09:53:38.609Z,1.70
2024-04-13T09:58:36.216Z,1.98
2024-04-13T10:01:04.716Z,2.40
2024-04-13T10:03:34.996Z,2.50
2024-04-13T10:06:10.735Z,2.65
2024-04-13T10:08:43.531Z,2.00
2024-04-13T10:11:12.471Z,2.33
2024-04-13T10:13:45.781Z,2.00
2024-04-13T10:16:15.701Z,2.00
2024-04-13T10:18:46.983Z,2.58
2024-04-13T10:21:15.312Z,2.17
2024-04-13T10:23:49.220Z,2.25
2024-04-13T10:26:26.363Z,1.52
2024-04-13T10:29:00.867Z,2.28
2024-04-13T10:31:29.499Z,2.30
2024-04-13T10:34:00.519Z,2.38
2024-04-13T10:36:28.698Z,2.03
2024-04-13T10:39:04.627Z,2.00
2024-04-13T10:41:32.948Z,2.38
2024-04-13T10:44:03.297Z,2.40
2024-04-13T10:46:30.902Z,1.90
2024-04-13T10:49:01.394Z,2.17
2024-04-13T10:51:28.634Z,2.10
2024-04-13T10:54:02.319Z,2.63
2024-04-13T10:56:29.703Z,1.70
2024-04-13T10:58:59.871Z,2.13
2024-04-13T11:01:27.072Z,2.50
2024-04-13T11:04:05.715Z,2.13
2024-04-13T11:06:33.224Z,1.90
2024-04-13T11:09:05.779Z,2.72
2024-04-13T11:11:33.015Z,1.75
2024-04-13T11:14:02.942Z,1.98
2024-04-13T11:16:30.198Z,1.88
2024-04-13T11:19:00.187Z,2.00
2024-04-13T11:21:28.059Z,1.77
2024-04-13T11:23:58.547Z,1.77
2024-04-13T11:26:32.349Z,1.60
2024-04-13T11:29:02.457Z,1.90
2024-04-13T11:31:29.938Z,1.90
2024-04-13T11:33:59.913Z,2.10
2024-04-13T11:36:27.176Z,2.10
2024-04-13T11:39:03.468Z,1.90
2024-04-13T11:41:37.003Z,2.17
2024-04-13T11:44:08.443Z,1.90
2024-04-13T11:46:35.620Z,1.92
2024-04-13T11:49:05.893Z,2.20
2024-04-13T11:51:33.207Z,2.28
2024-04-13T11:54:03.116Z,2.13
2024-04-13T11:56:40.860Z,1.60
2024-04-13T11:59:10.645Z,2.10
2024-04-13T12:01:37.844Z,2.08
2024-04-13T12:04:07.984Z,2.15
2024-04-13T12:06:35.365Z,2.10
2024-04-13T12:09:06.101Z,1.90
2024-04-13T12:11:36.749Z,1.70
2024-04-13T12:14:07.479Z,1.65
2024-04-13T12:16:34.822Z,2.35
2024-04-13T12:19:05.384Z,1.77
2024-04-13T12:21:33.352Z,1.90
2024-04-13T12:24:05.132Z,2.00
2024-04-13T12:26:32.442Z,1.95
2024-04-13T12:29:04.969Z,2.00
2024-04-13T12:31:32.149Z,1.90
2024-04-13T12:34:01.970Z,2.08
2024-04-13T12:36:29.217Z,2.03
2024-04-13T12:38:59.070Z,2.08
2024-04-13T12:41:26.233Z,2.03
2024-04-13T12:43:56.007Z,1.98
2024-04-13T12:46:25.878Z,2.00
2024-04-13T12:48:55.736Z,2.65
2024-04-13T12:51:23.022Z,2.13
2024-04-13T12:53:52.810Z,1.95
2024-04-13T12:56:20.018Z,1.85
2024-04-13T12:58:52.586Z,1.92
2024-04-13T13:01:20.452Z,2.20
2024-04-13T13:03:53.144Z,2.45
2024-04-13T13:08:50.056Z,2.25
2024-04-13T13:11:17.271Z,1.63
2024-04-13T13:13:47.093Z,2.08
2024-04-13T13:16:14.432Z,2.20
2024-04-13T13:18:44.231Z,1.90
2024-04-13T13:21:14.092Z,2.08
2024-04-13T13:23:45.588Z,1.95
2024-04-13T13:26:13.534Z,2.00
2024-04-13T13:28:43.327Z,1.90
2024-04-13T13:31:10.523Z,1.88
2024-04-13T13:33:40.355Z,1.85
2024-04-13T13:36:07.932Z,2.05
2024-04-13T13:38:40.715Z,2.08
2024-04-13T13:43:37.450Z,2.17
2024-04-13T13:46:04.993Z,2.13
2024-04-13T13:48:34.925Z,2.42
2024-04-13T13:51:02.418Z,1.80
2024-04-13T13:53:32.216Z,1.75
2024-04-13T13:56:02.029Z,1.95
2024-04-13T13:58:31.873Z,2.20
2024-04-13T14:01:04.871Z,2.00
2024-04-13T14:03:34.911Z,1.63
2024-04-13T14:06:02.361Z,1.77
2024-04-13T14:08:32.365Z,2.30
2024-04-13T14:11:02.249Z,1.92
2024-04-13T14:13:32.195Z,2.35
2024-04-13T14:16:00.421Z,2.03
2024-04-13T14:18:30.368Z,2.42
2024-04-13T14:21:00.662Z,2.40
2024-04-13T14:23:32.123Z,2.15
2024-04-13T14:26:01.927Z,2.55
2024-04-13T14:28:31.695Z,2.10
2024-04-13T14:31:01.996Z,2.53
2024-04-13T14:33:33.022Z,2.33
2024-04-13T14:36:00.384Z,2.10
2024-04-13T14:38:30.159Z,2.00
2024-04-13T14:40:57.303Z,2.40
2024-04-13T14:43:29.727Z,2.30
2024-04-13T14:45:57.719Z,2.38
2024-04-13T14:48:28.715Z,2.40
2024-04-13T14:50:56.075Z,2.15
2024-04-13T14:53:26.136Z,2.38
2024-04-13T14:55:55.690Z,2.47
2024-04-13T14:58:25.655Z,2.63
2024-04-13T15:01:02.347Z,2.40
2024-04-13T15:03:32.362Z,2.20
2024-04-13T15:05:59.658Z,2.83
2024-04-13T15:08:29.482Z,2.60
2024-04-13T15:10:59.905Z,2.60
2024-04-13T15:13:29.768Z,3.22
2024-04-13T15:15:59.596Z,2.70
2024-04-13T15:18:29.594Z,2.55
2024-04-13T15:20:59.847Z,2.90
2024-04-13T15:23:29.730Z,2.80
2024-04-13T15:25:56.896Z,2.70
2024-04-13T15:28:26.691Z,2.38
2024-04-13T15:30:54.043Z,2.72
2024-04-13T15:33:26.706Z,2.50
2024-04-13T15:35:53.894Z,2.70
2024-04-13T15:38:23.655Z,2.63
2024-04-13T15:40:51.465Z,2.53
2024-04-13T15:43:21.312Z,2.50
2024-04-13T15:45:53.081Z,2.47
2024-04-13T15:48:23.495Z,2.60
2024-04-13T15:50:54.262Z,2.38
2024-04-13T15:53:24.128Z,2.35
2024-04-13T15:55:51.288Z,2.28
2024-04-13T15:58:21.916Z,2.42
2024-04-13T16:00:49.213Z,2.50
2024-04-13T16:03:19.130Z,2.40
2024-04-13T16:05:47.565Z,2.25
2024-04-13T16:08:19.953Z,2.50
2024-04-13T16:10:47.217Z,2.73
2024-04-13T16:13:16.984Z,2.58
2024-04-13T16:15:44.350Z,2.38
2024-04-13T16:18:14.323Z,2.40
2024-04-13T16:20:41.590Z,2.70
2024-04-13T16:23:11.369Z,2.70
2024-04-13T16:25:41.555Z,2.80
2024-04-13T16:28:11.498Z,2.83
2024-04-13T16:30:39.217Z,2.20
2024-04-13T16:33:11.581Z,2.63
2024-04-13T16:35:39.812Z,2.28
2024-04-13T16:38:09.569Z,2.38
2024-04-13T16:40:36.748Z,2.40
2024-04-13T16:43:09.216Z,2.50
2024-04-13T16:45:36.407Z,2.63
2024-04-13T16:48:06.522Z,2.63
2024-04-13T16:50:33.726Z,2.50
2024-04-13T16:53:03.473Z,3.10
2024-04-13T16:55:30.643Z,2.60
2024-04-13T16:58:00.438Z,3.10
2024-04-13T17:00:30.256Z,2.88
2024-04-13T17:03:01.565Z,2.78
2024-04-13T17:05:28.910Z,2.72
2024-04-13T17:07:58.688Z,2.90
2024-04-13T17:10:25.905Z,3.10
2024-04-13T17:12:55.702Z,2.78
2024-04-13T17:15:23.446Z,3.17
2024-04-13T17:17:59.808Z,3.65
2024-04-13T17:20:27.098Z,3.42
2024-04-13T17:22:56.859Z,3.40
2024-04-13T17:25:24.024Z,3.33
2024-04-13T17:27:53.903Z,3.08
2024-04-13T17:30:21.226Z,3.67
2024-04-13T17:32:51.984Z,3.47
2024-04-13T17:35:21.827Z,3.50
2024-04-13T17:37:51.661Z,4.00
2024-04-13T17:40:18.932Z,4.28
2024-04-13T17:42:48.820Z,3.20
2024-04-13T17:45:16.456Z,3.20
2024-04-13T17:47:46.333Z,3.85
2024-04-13T17:50:13.800Z,4.13
2024-04-13T17:52:46.276Z,4.22
2024-04-13T17:55:13.557Z,4.13
2024-04-13T17:57:45.537Z,4.93
2024-04-13T18:00:13.510Z,3.80
2024-04-13T18:02:43.665Z,3.85
2024-04-13T18:05:10.963Z,4.85
2024-04-13T18:07:40.896Z,4.20
2024-04-13T18:10:11.071Z,3.75
2024-04-13T18:12:41.267Z,3.72
2024-04-13T18:15:08.813Z,4.20
2024-04-13T18:17:38.766Z,4.13
2024-04-13T18:20:07.079Z,3.50
2024-04-13T18:22:36.896Z,3.40
2024-04-13T18:25:04.294Z,3.75
2024-04-13T18:27:37.006Z,3.40
2024-04-13T18:30:05.254Z,3.55
2024-04-13T18:32:35.201Z,3.60
2024-04-13T18:35:03.185Z,7.18
2024-04-13T18:37:33.224Z,4.00
2024-04-13T18:40:00.687Z,3.85
2024-04-13T18:42:31.323Z,3.95
2024-04-13T18:45:01.680Z,3.63
2024-04-13T18:47:31.663Z,6.80
2024-04-13T18:50:01.229Z,6.43
2024-04-13T18:52:32.624Z,11.13
2024-04-13T18:54:59.960Z,3.90
2024-04-13T18:57:30.463Z,3.70
2024-04-13T19:00:00.527Z,4.32
2024-04-13T19:02:30.424Z,4.28
2024-04-13T19:04:57.670Z,4.45
2024-04-13T19:07:27.728Z,4.28
2024-04-13T19:09:55.028Z,4.75
2024-04-13T19:12:27.354Z,4.20
2024-04-13T19:14:54.669Z,4.15
2024-04-13T19:17:27.342Z,4.80
2024-04-13T19:19:55.992Z,5.35
2024-04-13T19:22:26.504Z,4.95
2024-04-13T19:24:54.015Z,5.10
2024-04-13T19:27:23.927Z,3.78
2024-04-13T19:29:52.430Z,4.30
2024-04-13T19:32:23.134Z,4.57
2024-04-13T19:34:53.124Z,5.18
2024-04-13T19:37:23.327Z,4.82
2024-04-13T19:39:50.986Z,4.55
2024-04-13T19:42:21.297Z,5.20
2024-04-13T19:44:48.486Z,4.95
2024-04-13T19:47:19.649Z,5.65
2024-04-13T19:49:48.838Z,6.35
2024-04-13T19:52:21.361Z,5.60
2024-04-13T19:54:48.608Z,5.72
2024-04-13T19:57:18.387Z,5.78
2024-04-13T19:59:45.622Z,5.57
2024-04-13T20:02:15.408Z,6.13
2024-04-13T20:04:43.837Z,6.28
2024-04-13T20:07:13.923Z,6.18
2024-04-13T20:09:46.160Z,6.30
2024-04-13T20:12:19.663Z,8.40
2024-04-13T20:15:07.972Z,6.93
2024-04-13T20:17:54.222Z,6.25
2024-04-13T20:20:24.635Z,6.85
2024-04-13T20:22:54.586Z,5.97
2024-04-13T20:25:27.191Z,7.32
2024-04-13T20:27:57.332Z,6.18
2024-04-13T20:30:27.445Z,6.43
2024-04-13T20:32:55.390Z,6.95
2024-04-13T20:35:25.181Z,6.72
2024-04-13T20:37:52.412Z,7.15
2024-04-13T20:40:22.250Z,8.45
2024-04-13T20:42:52.048Z,7.45
2024-04-13T20:45:21.882Z,7.78
2024-04-13T20:47:49.152Z,7.57
2024-04-13T20:50:19.062Z,7.78
2024-04-13T20:52:56.582Z,7.25
2024-04-13T20:55:30.234Z,7.75
2024-04-13T20:58:00.157Z,7.18
2024-04-13T21:00:32.158Z,8.07
2024-04-13T21:02:59.803Z,7.55
2024-04-13T21:05:34.515Z,6.85
2024-04-13T21:08:02.022Z,7.55
2024-04-13T21:10:32.405Z,8.05
2024-04-13T21:13:02.594Z,7.22
2024-04-13T21:15:36.310Z,7.60
2024-04-13T21:18:05.019Z,7.63
2024-04-13T21:20:34.972Z,7.45
2024-04-13T21:23:02.728Z,7.00
2024-04-13T21:25:32.538Z,8.10
2024-04-13T21:28:02.621Z,7.47
2024-04-13T21:30:32.699Z,7.95
2024-04-13T21:32:59.975Z,7.18
2024-04-13T21:35:29.763Z,7.25
2024-04-13T21:37:59.102Z,7.60
2024-04-13T21:40:29.196Z,7.55
2024-04-13T21:42:56.430Z,7.18
2024-04-13T21:45:28.894Z,7.50
2024-04-13T21:47:56.126Z,7.15
2024-04-13T21:50:26.830Z,8.35
2024-04-13T21:52:54.038Z,8.25
2024-04-13T21:55:23.814Z,8.75
2024-04-13T21:57:51.070Z,8.90
2024-04-13T22:00:20.926Z,8.07
2024-04-13T22:02:50.718Z,7.93
2024-04-13T22:05:21.906Z,8.10
2024-04-13T22:07:49.100Z,8.35
2024-04-13T22:10:21.243Z,7.72
2024-04-13T22:12:49.208Z,7.93
2024-04-13T22:15:19.065Z,8.30
2024-04-13T22:17:46.349Z,7.95
2024-04-13T22:20:21.315Z,8.43
2024-04-13T22:22:48.502Z,9.60
2024-04-13T22:25:22.542Z,8.57
2024-04-13T22:27:50.017Z,8.48
2024-04-13T22:30:20.327Z,7.82
2024-04-13T22:32:47.819Z,8.73
2024-04-13T22:35:20.727Z,8.25
2024-04-13T22:37:47.902Z,8.02
2024-04-13T22:40:19.668Z,9.07
2024-04-13T22:42:46.910Z,8.70
2024-04-13T22:45:17.023Z,8.52
2024-04-13T22:47:44.361Z,8.82
2024-04-13T22:50:14.588Z,8.27
2024-04-13T22:52:44.379Z,9.77
2024-04-13T22:55:14.205Z,9.40
2024-04-13T22:57:41.463Z,8.52
2024-04-13T23:00:12.400Z,8.77
2024-04-13T23:02:39.787Z,9.65
2024-04-13T23:05:12.649Z,9.55
2024-04-13T23:07:40.768Z,9.93
2024-04-13T23:10:13.461Z,9.05
2024-04-13T23:12:41.044Z,8.80
2024-04-13T23:15:11.808Z,9.98
2024-04-13T23:17:39.088Z,9.25
2024-04-13T23:20:09.891Z,9.55
2024-04-13T23:22:37.160Z,9.77
2024-04-13T23:25:07.608Z,9.45
2024-04-13T23:27:37.824Z,9.55
2024-04-13T23:30:08.693Z,10.50
2024-04-13T23:32:36.452Z,9.98
2024-04-13T23:35:06.314Z,10.23
2024-04-13T23:37:33.468Z,10.48
2024-04-13T23:40:03.297Z,11.27
2024-04-13T23:42:30.548Z,10.52
2024-04-13T23:45:03.125Z,10.20
2024-04-13T23:47:31.401Z,10.23
2024-04-13T23:50:01.370Z,10.80
2024-04-13T23:52:30.676Z,10.45
2024-04-13T23:55:00.554Z,10.52
2024-04-13T23:57:27.824Z,10.25
2024-04-13T23:59:57.680Z,10.50
